Time;durP1;ratioP1;P1;durP2;ratioP2;P2;SDS_P1;SDS_P2;PMS_P1;PMS_P2;Temp;Humidity;BMP_temperature;BMP_pressure;BME280_temperature;BME280_humidity;BME280_pressure;Samples;Min_cycle;Max_cycle;Signal;HPM_P1;HPM_P2
2022/11/12 00:00:17;;;;;;;37.28;15.40;;;;;;;6.18;100.00;100159.88;4936227;28;20052;-82
2022/11/12 00:02:48;;;;;;;28.10;12.25;;;;;;;6.25;100.00;100166.81;4932147;28;20256;-81
2022/11/12 00:05:19;;;;;;;33.83;13.73;;;;;;;6.26;100.00;100171.13;4924484;28;20332;-82
2022/11/12 00:07:50;;;;;;;35.17;12.52;;;;;;;6.29;99.78;100173.75;4922713;28;20340;-81
2022/11/12 00:10:22;;;;;;;31.80;13.50;;;;;;;6.24;99.05;100162.47;4926127;28;20062;-81
2022/11/12 00:12:53;;;;;;;38.58;13.00;;;;;;;6.32;97.93;100184.13;4913292;28;20464;-81
2022/11/12 00:15:24;;;;;;;36.45;12.73;;;;;;;6.33;97.53;100196.22;4927771;28;20093;-82
2022/11/12 00:17:54;;;;;;;33.10;13.27;;;;;;;6.34;97.21;100192.78;4926832;28;20420;-81
2022/11/12 00:20:25;;;;;;;35.20;14.07;;;;;;;6.37;96.97;100192.75;4926375;28;20044;-81
2022/11/12 00:22:56;;;;;;;39.60;13.82;;;;;;;6.38;96.47;100201.41;4928939;28;20064;-81
2022/11/12 00:25:29;;;;;;;32.58;12.73;;;;;;;6.40;95.80;100191.88;4926316;28;20052;-82
2022/11/12 00:28:04;;;;;;;35.38;12.68;;;;;;;6.45;95.65;100201.41;4940531;28;20339;-81
2022/11/12 00:30:35;;;;;;;30.88;13.32;;;;;;;6.51;95.60;100200.53;4928446;28;20040;-82
2022/11/12 00:33:07;;;;;;;35.15;12.10;;;;;;;6.56;94.92;100198.78;4945359;28;20066;-81
2022/11/12 00:35:37;;;;;;;30.58;12.20;;;;;;;6.58;93.63;100206.59;4924344;28;20119;-81
2022/11/12 00:38:08;;;;;;;22.63;9.38;;;;;;;6.43;90.63;100187.53;4934101;28;20060;-81
2022/11/12 00:40:41;;;;;;;23.55;8.77;;;;;;;6.58;87.52;100211.78;4943667;28;20052;-80
2022/11/12 00:43:11;;;;;;;26.25;9.43;;;;;;;6.57;85.87;100213.50;4942025;28;20373;-81
2022/11/12 00:45:44;;;;;;;19.92;9.05;;;;;;;6.54;84.74;100225.59;4951946;28;20079;-81
2022/11/12 00:48:15;;;;;;;26.02;9.25;;;;;;;6.58;85.39;100228.22;4917452;28;20259;-81
2022/11/12 00:50:45;;;;;;;22.40;8.88;;;;;;;6.46;86.02;100212.63;4926331;28;20049;-81
2022/11/12 00:53:16;;;;;;;17.25;7.22;;;;;;;6.40;83.62;100220.44;4928442;28;20078;-81
2022/11/12 00:55:49;;;;;;;25.70;9.43;;;;;;;6.42;83.46;100229.94;4943612;28;20312;-81
2022/11/12 00:58:20;;;;;;;22.00;9.68;;;;;;;6.46;81.08;100239.47;4945452;28;20044;-81
2022/11/12 01:00:50;;;;;;;17.00;8.20;;;;;;;6.44;80.85;100250.69;4941873;28;20036;-81
2022/11/12 01:03:21;;;;;;;13.90;7.30;;;;;;;6.41;80.44;100251.56;4945400;28;20063;-81
2022/11/12 01:05:52;;;;;;;17.00;6.57;;;;;;;6.32;75.06;100243.81;4924077;28;20053;-82
2022/11/12 01:08:23;;;;;;;15.95;6.88;;;;;;;6.22;76.48;100260.22;4946353;28;20058;-81
2022/11/12 01:10:56;;;;;;;17.33;7.63;;;;;;;6.09;78.07;100258.44;4944382;28;20402;-81
2022/11/12 01:13:26;;;;;;;18.80;7.22;;;;;;;6.11;76.88;100272.28;4927344;28;20068;-81
2022/11/12 01:15:58;;;;;;;17.27;6.78;;;;;;;6.10;77.54;100278.38;4927523;28;20044;-81
2022/11/12 01:18:29;;;;;;;20.50;7.15;;;;;;;6.12;79.09;100289.63;4936655;28;20047;-81
2022/11/12 01:21:02;;;;;;;18.08;6.68;;;;;;;6.03;78.83;100273.16;4928752;28;20047;-80
2022/11/12 01:23:34;;;;;;;13.13;6.88;;;;;;;6.02;77.03;100278.34;4937509;28;20667;-82
2022/11/12 01:26:08;;;;;;;16.50;7.13;;;;;;;5.99;75.69;100287.00;4946398;28;20040;-81
2022/11/12 01:28:39;;;;;;;13.50;6.55;;;;;;;5.60;75.88;100236.69;4943810;28;20040;-82
2022/11/12 01:31:14;;;;;;;14.77;6.10;;;;;;;5.92;76.64;100287.78;4925653;28;20268;-82
2022/11/12 01:33:46;;;;;;;13.25;7.05;;;;;;;5.92;77.39;100276.56;4907717;28;20081;-82
2022/11/12 01:36:19;;;;;;;15.35;7.20;;;;;;;5.90;78.41;100284.31;4931542;28;20054;-82
2022/11/12 01:38:50;;;;;;;16.23;6.65;;;;;;;5.87;78.03;100263.56;4928523;28;20063;-82
2022/11/12 01:41:24;;;;;;;20.25;6.78;;;;;;;5.89;79.17;100277.41;4931923;28;20048;-81
2022/11/12 01:44:13;;;;;;;18.23;6.53;;;;;;;5.92;78.63;100282.59;4933354;28;20056;-81
2022/11/12 01:46:56;;;;;;;15.02;6.57;;;;;;;5.97;79.24;100283.53;4920937;28;20266;-81
2022/11/12 01:49:32;;;;;;;12.85;6.45;;;;;;;5.97;79.38;100290.44;4917397;28;20052;-81
2022/11/12 01:52:16;;;;;;;20.52;6.50;;;;;;;5.92;79.65;100272.22;4919336;28;20053;-81
2022/11/12 01:54:50;;;;;;;20.73;6.35;;;;;;;5.94;80.52;100270.56;4924404;28;20046;-81
2022/11/12 01:57:28;;;;;;;14.77;5.35;;;;;;;6.05;80.35;100293.91;4930043;28;20100;-81
2022/11/12 02:00:09;;;;;;;19.15;6.28;;;;;;;5.81;79.46;100250.56;4933038;28;20048;-81
2022/11/12 02:02:41;;;;;;;15.93;5.43;;;;;;;5.68;79.27;100244.50;4925360;28;20053;-81
2022/11/12 02:05:13;;;;;;;9.70;4.47;;;;;;;5.93;77.68;100299.88;4940009;28;20057;-81
2022/11/12 02:07:47;;;;;;;13.18;5.05;;;;;;;5.93;78.27;100319.78;4943640;28;20058;-81
2022/11/12 02:10:18;;;;;;;12.27;4.07;;;;;;;5.84;78.94;100316.28;4926441;28;20157;-81
2022/11/12 02:15:41;;;;;;;14.98;4.60;;;;;;;5.67;79.89;100330.06;4923045;28;20052;-81
2022/11/12 02:18:12;;;;;;;9.98;4.40;;;;;;;5.59;79.98;100336.06;4938005;28;20135;-81
2022/11/12 02:20:43;;;;;;;12.82;4.70;;;;;;;5.56;80.10;100341.22;4945789;28;20261;-81
2022/11/12 02:23:20;;;;;;;12.18;5.00;;;;;;;5.46;79.54;100328.19;4937860;28;20056;-80
2022/11/12 02:25:51;;;;;;;11.88;5.18;;;;;;;5.43;79.82;100329.06;4933549;28;20052;-80
2022/11/12 02:28:25;;;;;;;12.43;4.82;;;;;;;5.30;79.18;100324.66;4937422;28;20037;-81
2022/11/12 02:31:08;;;;;;;11.88;5.80;;;;;;;5.28;79.40;100329.81;4942167;28;20063;-83
2022/11/12 02:33:43;;;;;;;8.73;5.00;;;;;;;5.31;77.71;100341.94;4933435;28;20056;-79
2022/11/12 02:36:15;;;;;;;11.38;4.72;;;;;;;5.25;77.79;100339.31;4919478;28;20393;-81
2022/11/12 02:38:50;;;;;;;13.00;4.70;;;;;;;5.28;77.13;100344.50;4932389;28;20044;-80
2022/11/12 02:41:24;;;;;;;14.38;4.95;;;;;;;4.89;76.24;100305.41;4927843;28;20087;-80
2022/11/12 02:43:55;;;;;;;10.10;4.75;;;;;;;5.23;74.44;100356.56;4952163;28;20043;-81
2022/11/12 02:46:25;;;;;;;8.63;4.68;;;;;;;5.14;73.92;100353.06;4928377;28;20291;-81
2022/11/12 02:48:59;;;;;;;8.60;4.53;;;;;;;5.29;72.89;100378.22;4927631;28;20606;-80
2022/11/12 02:51:29;;;;;;;9.35;4.70;;;;;;;5.23;71.39;100361.75;4925143;28;20052;-80
2022/11/12 02:54:02;;;;;;;10.63;4.93;;;;;;;5.06;69.95;100349.53;4895047;28;20076;-81
2022/11/12 02:56:33;;;;;;;12.75;5.20;;;;;;;5.21;69.75;100373.81;4916004;28;20049;-80
2022/11/12 02:59:04;;;;;;;10.95;5.32;;;;;;;5.30;69.01;100376.50;4912764;28;20186;-80
2022/11/12 03:01:35;;;;;;;10.05;4.72;;;;;;;5.23;70.39;100341.88;4911656;28;20053;-81
2022/11/12 03:04:06;;;;;;;9.95;5.28;;;;;;;5.39;68.34;100379.13;4925891;28;20055;-82
2022/11/12 03:06:36;;;;;;;10.85;5.53;;;;;;;5.31;65.99;100380.81;4923585;28;20044;-81
2022/11/12 03:09:09;;;;;;;10.82;5.68;;;;;;;5.23;66.49;100378.16;4935720;28;20071;-81
2022/11/12 03:11:40;;;;;;;9.75;5.70;;;;;;;5.22;68.77;100388.50;4944292;28;20064;-81
2022/11/12 03:14:10;;;;;;;11.13;5.35;;;;;;;5.26;67.35;100390.25;4931295;28;20356;-81
2022/11/12 03:16:41;;;;;;;7.82;4.55;;;;;;;5.35;68.36;100400.72;4943690;28;20362;-81
2022/11/12 03:19:12;;;;;;;7.85;4.07;;;;;;;5.25;70.01;100401.50;4930101;28;20087;-81
2022/11/12 03:21:52;;;;;;;9.40;4.55;;;;;;;5.28;71.13;100406.69;4924207;28;20053;-81
2022/11/12 03:24:27;;;;;;;7.97;4.70;;;;;;;5.29;69.91;100409.31;4915088;28;20256;-82
2022/11/12 03:26:58;;;;;;;10.45;4.68;;;;;;;5.17;69.37;100415.25;4937449;28;20053;-80
2022/11/12 03:29:31;;;;;;;8.13;3.92;;;;;;;5.10;70.77;100417.78;4925493;28;20406;-82
2022/11/12 03:32:05;;;;;;;9.52;4.63;;;;;;;5.07;71.76;100429.00;4923385;28;20057;-80
2022/11/12 03:34:44;;;;;;;12.07;5.95;;;;;;;5.00;70.60;100437.56;4914423;28;20052;-79
2022/11/12 03:37:18;;;;;;;7.10;4.43;;;;;;;4.92;68.66;100436.63;4915393;28;20329;-80
2022/11/12 03:39:50;;;;;;;7.97;4.35;;;;;;;4.60;68.73;100400.94;4906640;28;20048;-80
2022/11/12 03:42:21;;;;;;;6.78;4.07;;;;;;;4.63;69.01;100432.00;4917486;28;20094;-80
2022/11/12 03:44:52;;;;;;;8.98;4.50;;;;;;;4.60;69.39;100431.97;4916969;28;20053;-80
2022/11/12 03:47:22;;;;;;;8.32;4.07;;;;;;;4.69;70.21;100442.44;4930907;28;20383;-80
2022/11/12 03:49:53;;;;;;;7.95;4.28;;;;;;;4.68;70.84;100439.81;4909089;28;20095;-81
2022/11/12 03:52:24;;;;;;;8.98;4.03;;;;;;;4.65;71.18;100438.06;4914871;28;20048;-80
2022/11/12 03:54:57;;;;;;;5.97;3.58;;;;;;;4.64;71.09;100441.53;4907924;28;20063;-80
2022/11/12 03:57:27;;;;;;;7.20;3.60;;;;;;;4.53;69.46;100441.38;4924650;28;20048;-79
2022/11/12 03:59:58;;;;;;;7.70;3.90;;;;;;;4.49;69.92;100450.00;4923358;28;20499;-80
2022/11/12 04:02:29;;;;;;;8.48;3.97;;;;;;;4.32;69.79;100436.84;4922406;28;20366;-80
2022/11/12 04:10:39;;;;;;;9.98;4.80;;;;;;;4.37;70.16;100448.94;4899940;28;20044;-80
2022/11/12 04:13:28;;;;;;;9.57;4.82;;;;;;;4.41;70.03;100468.84;4922779;28;20052;-80
2022/11/12 04:21:53;;;;;;;7.07;4.15;;;;;;;4.16;69.02;100460.78;4909028;28;20044;-79
2022/11/12 04:27:22;;;;;;;10.55;5.10;;;;;;;4.17;68.97;100467.72;4841559;28;20066;-81
2022/11/12 04:30:17;;;;;;;8.10;4.38;;;;;;;4.04;68.92;100471.84;4928186;28;20053;-82
2022/11/12 04:33:01;;;;;;;9.40;5.38;;;;;;;3.37;68.51;100381.31;4892770;28;20263;-81
2022/11/12 04:35:32;;;;;;;10.00;4.90;;;;;;;4.01;68.37;100489.88;4911398;28;20549;-82
2022/11/12 04:38:03;;;;;;;8.43;4.50;;;;;;;3.96;68.94;100493.25;4920471;28;20402;-81
2022/11/12 04:46:31;;;;;;;10.50;4.90;;;;;;;3.73;68.48;100501.56;4919597;28;20060;-81
2022/11/12 04:49:14;;;;;;;12.75;6.90;;;;;;;3.55;68.99;100490.94;4890706;28;20071;-85
2022/11/12 04:52:10;;;;;;;10.85;5.63;;;;;;;3.26;70.20;100451.72;4902849;28;20110;-84
2022/11/12 04:54:52;;;;;;;14.80;5.55;;;;;;;3.42;70.36;100477.81;4901344;28;20056;-82
2022/11/12 04:57:43;;;;;;;10.13;5.10;;;;;;;3.56;71.21;100503.88;4907892;28;20056;-82
2022/11/12 05:00:31;;;;;;;11.60;5.43;;;;;;;3.49;71.90;100498.56;4910870;28;20047;-82
2022/11/12 05:03:10;;;;;;;7.32;3.45;;;;;;;3.53;71.69;100510.72;4909876;28;20044;-83
2022/11/12 05:05:53;;;;;;;8.48;3.95;;;;;;;3.27;74.38;100495.66;4921060;28;20097;-83
2022/11/12 05:08:28;;;;;;;6.85;3.33;;;;;;;3.22;75.55;100517.94;4900022;28;20079;-83
2022/11/12 05:11:05;;;;;;;6.45;3.65;;;;;;;2.98;76.45;100518.38;4922255;28;20332;-83
2022/11/12 05:13:41;;;;;;;7.28;4.00;;;;;;;2.90;76.94;100515.66;4914081;28;20046;-82
2022/11/12 05:16:56;;;;;;;8.20;3.85;;;;;;;2.02;76.58;100409.00;4923549;28;20049;-82
2022/11/12 05:19:39;;;;;;;11.73;4.63;;;;;;;2.75;76.32;100520.53;4861952;28;20378;-83
2022/11/12 05:22:13;;;;;;;9.68;4.82;;;;;;;2.82;76.69;100548.16;4909096;28;20177;-83
2022/11/12 05:25:08;;;;;;;5.90;3.50;;;;;;;2.80;76.62;100549.88;4903253;28;20051;-83
2022/11/12 05:27:38;;;;;;;9.98;4.80;;;;;;;2.75;76.75;100546.34;4924131;28;20060;-83
2022/11/12 05:30:10;;;;;;;8.38;4.10;;;;;;;2.54;77.31;100537.28;4916723;28;20064;-83
2022/11/12 05:32:41;;;;;;;7.28;3.90;;;;;;;2.56;77.79;100545.94;4914634;28;20091;-83
2022/11/12 05:35:13;;;;;;;11.68;4.75;;;;;;;2.60;77.87;100567.53;4926607;28;20079;-83
2022/11/12 05:38:01;;;;;;;10.55;3.83;;;;;;;2.46;77.71;100562.06;4935119;28;20040;-83
2022/11/12 05:40:34;;;;;;;10.63;4.82;;;;;;;2.34;77.52;100585.00;4893715;28;20053;-81
2022/11/12 05:43:12;;;;;;;6.50;4.38;;;;;;;2.02;77.62;100541.34;4923648;28;20124;-81
2022/11/12 05:45:46;;;;;;;10.68;4.68;;;;;;;2.23;77.45;100592.50;4911326;28;20046;-82
2022/11/12 05:48:17;;;;;;;9.07;4.45;;;;;;;2.14;77.70;100603.47;4917873;28;20107;-81
2022/11/12 05:50:55;;;;;;;9.23;4.10;;;;;;;2.10;77.71;100606.84;4900060;28;20097;-82
2022/11/12 05:53:42;;;;;;;13.60;5.35;;;;;;;1.93;78.16;100582.38;4909354;28;20078;-82
2022/11/12 05:56:13;;;;;;;7.18;3.65;;;;;;;1.93;77.47;100592.66;4904955;28;20057;-82
2022/11/12 05:58:44;;;;;;;9.68;4.07;;;;;;;1.94;77.29;100604.72;4920618;28;20229;-81
2022/11/12 06:01:20;;;;;;;13.73;3.70;;;;;;;1.87;78.50;100618.28;4915972;28;20249;-81
2022/11/12 06:03:51;;;;;;;9.32;3.72;;;;;;;1.84;77.52;100618.22;4924731;28;20358;-80
2022/11/12 06:06:46;;;;;;;8.15;3.92;;;;;;;1.78;77.66;100603.47;4905024;28;20117;-81
2022/11/12 06:09:17;;;;;;;7.68;3.70;;;;;;;1.75;77.80;100628.28;4927257;28;20348;-81
2022/11/12 06:11:48;;;;;;;7.80;3.65;;;;;;;1.71;77.90;100627.34;4923220;28;20048;-81
2022/11/12 06:14:19;;;;;;;5.40;3.63;;;;;;;1.60;77.68;100623.59;4914462;28;20055;-80
2022/11/12 06:16:49;;;;;;;13.52;5.65;;;;;;;1.56;77.83;100632.09;4923736;28;20054;-80
2022/11/12 06:19:20;;;;;;;11.65;5.28;;;;;;;1.57;78.29;100639.84;4918255;28;20328;-81
2022/11/12 06:21:55;;;;;;;9.07;3.75;;;;;;;1.45;77.92;100629.25;4925681;28;20054;-81
2022/11/12 06:24:29;;;;;;;5.07;2.80;;;;;;;1.47;77.71;100648.16;4900845;28;20118;-81
2022/11/12 06:27:24;;;;;;;9.65;3.92;;;;;;;1.28;77.71;100624.53;4899421;28;20045;-82
2022/11/12 06:30:21;;;;;;;7.28;2.95;;;;;;;1.29;77.63;100639.13;4912552;28;20058;-83
2022/11/12 06:32:54;;;;;;;9.40;3.42;;;;;;;1.33;78.27;100654.69;4829921;28;20046;-83
2022/11/12 06:35:25;;;;;;;5.70;3.13;;;;;;;1.28;77.91;100676.00;4836255;28;20062;-81
2022/11/12 06:37:58;;;;;;;9.73;3.30;;;;;;;1.26;78.34;100680.22;4849534;28;20042;-81
2022/11/12 06:40:33;;;;;;;7.13;3.60;;;;;;;1.22;78.27;100683.56;4857993;28;20117;-83
2022/11/12 06:43:05;;;;;;;8.00;3.92;;;;;;;1.16;78.74;100683.38;4840305;28;20054;-83
2022/11/12 06:45:39;;;;;;;9.45;3.70;;;;;;;1.05;78.77;100666.78;4849510;28;20050;-84
2022/11/12 06:48:15;;;;;;;11.68;3.92;;;;;;;1.07;78.47;100683.09;4844048;28;20059;-84
2022/11/12 06:50:49;;;;;;;9.80;4.60;;;;;;;1.06;78.49;100701.97;4849976;28;20054;-83
2022/11/12 06:53:28;;;;;;;10.63;3.30;;;;;;;1.01;78.08;100698.38;4847536;28;20069;-82
2022/11/12 06:56:03;;;;;;;4.65;2.78;;;;;;;0.83;78.01;100673.84;4837822;28;20058;-81
2022/11/12 06:58:38;;;;;;;6.93;2.92;;;;;;;0.97;78.07;100704.25;4840273;28;20054;-86
2022/11/12 07:01:13;;;;;;;5.80;2.85;;;;;;;0.94;78.46;100701.59;4849954;28;20073;-85
2022/11/12 07:03:44;;;;;;;7.68;3.50;;;;;;;0.69;77.76;100664.84;4840082;28;20073;-84
2022/11/12 07:06:19;;;;;;;6.40;2.92;;;;;;;0.61;77.86;100671.47;4849858;28;20057;-84
2022/11/12 07:08:52;;;;;;;10.60;2.95;;;;;;;0.87;78.15;100733.97;4849652;28;20401;-84
2022/11/12 07:11:22;;;;;;;9.48;3.67;;;;;;;0.85;78.24;100715.94;4916157;28;20271;-84
2022/11/12 07:13:57;;;;;;;7.47;3.22;;;;;;;0.82;78.65;100718.44;4917465;28;20128;-84
2022/11/12 07:16:28;;;;;;;8.23;2.92;;;;;;;0.75;77.93;100716.50;4914483;28;20109;-84
2022/11/12 07:18:59;;;;;;;5.78;2.65;;;;;;;0.81;78.23;100721.81;4920566;28;20232;-84
2022/11/12 07:21:30;;;;;;;8.05;3.83;;;;;;;0.79;77.79;100722.59;4924720;28;20271;-84
2022/11/12 07:24:02;;;;;;;8.20;2.75;;;;;;;0.77;77.22;100722.53;4919389;28;20053;-84
2022/11/12 07:26:33;;;;;;;7.97;2.53;;;;;;;0.77;76.67;100714.81;4917067;28;20045;-84
2022/11/12 07:29:10;;;;;;;10.57;2.80;;;;;;;0.64;76.95;100712.72;4895712;28;20104;-84
2022/11/12 07:32:05;;;;;;;3.60;2.33;;;;;;;0.76;76.90;100738.81;4906002;28;20539;-84
2022/11/12 07:34:36;;;;;;;5.32;2.20;;;;;;;0.68;76.27;100723.97;4918980;28;20253;-83
2022/11/12 07:37:06;;;;;;;6.88;2.35;;;;;;;0.76;76.50;100733.66;4925493;28;20056;-84
2022/11/12 07:39:43;;;;;;;3.97;2.33;;;;;;;0.64;76.53;100710.13;4915650;28;20041;-84
2022/11/12 07:42:13;;;;;;;4.32;2.17;;;;;;;0.64;76.76;100712.72;4894811;28;20056;-84
2022/11/12 07:44:44;;;;;;;3.60;2.17;;;;;;;0.68;77.19;100724.84;4907633;28;20245;-84
2022/11/12 07:47:15;;;;;;;3.15;2.20;;;;;;;0.71;77.51;100726.63;4898513;28;20052;-85
2022/11/12 07:49:48;;;;;;;4.15;2.05;;;;;;;0.55;76.81;100708.16;4907847;28;20364;-85
2022/11/12 07:52:22;;;;;;;6.80;2.35;;;;;;;0.70;76.92;100733.50;4917641;28;20112;-84
2022/11/12 07:54:54;;;;;;;6.65;2.40;;;;;;;0.62;77.15;100729.78;4919529;28;20083;-85
2022/11/12 07:57:25;;;;;;;4.10;2.10;;;;;;;0.68;76.96;100745.41;4920213;28;20056;-85
2022/11/12 07:59:59;;;;;;;6.05;2.10;;;;;;;0.68;76.47;100760.84;4923947;28;20048;-85
2022/11/12 08:02:29;;;;;;;5.57;2.53;;;;;;;0.70;77.00;100766.03;4924775;28;20036;-85
2022/11/12 08:05:00;;;;;;;5.93;2.45;;;;;;;0.70;75.94;100759.22;4918980;28;20433;-85
2022/11/12 08:07:46;;;;;;;10.68;2.75;;;;;;;0.60;75.98;100752.00;4906907;28;20091;-83
2022/11/12 08:10:20;;;;;;;4.97;2.35;;;;;;;0.71;76.15;100771.22;4920232;28;20037;-84
2022/11/12 08:12:51;;;;;;;5.05;2.42;;;;;;;0.66;76.32;100756.50;4923330;28;20355;-83
2022/11/12 08:15:22;;;;;;;5.32;2.20;;;;;;;0.71;75.57;100768.66;4910830;28;20092;-84
2022/11/12 08:17:57;;;;;;;5.15;2.10;;;;;;;0.71;74.55;100775.50;4922038;28;20094;-84
2022/11/12 08:20:29;;;;;;;3.50;2.33;;;;;;;0.70;73.25;100771.16;4918677;28;20044;-84
2022/11/12 08:23:03;;;;;;;6.22;2.72;;;;;;;0.72;74.17;100767.81;4922149;28;20087;-84
2022/11/12 08:25:36;;;;;;;4.63;1.83;;;;;;;0.70;73.60;100784.94;4897661;28;20068;-83
2022/11/12 08:28:11;;;;;;;4.72;2.28;;;;;;;0.68;72.71;100786.56;4906192;28;20057;-83
2022/11/12 08:30:43;;;;;;;5.78;2.78;;;;;;;0.68;73.25;100781.44;4917602;28;20084;-85
2022/11/12 08:33:14;;;;;;;5.40;2.38;;;;;;;0.69;73.41;100787.44;4910198;28;20052;-84
2022/11/12 08:35:47;;;;;;;8.05;2.65;;;;;;;0.66;73.40;100780.50;4915733;28;20213;-84
2022/11/12 08:38:18;;;;;;;5.07;2.30;;;;;;;0.65;73.38;100786.47;4926307;28;20060;-84
2022/11/12 08:40:50;;;;;;;7.50;2.70;;;;;;;0.64;73.30;100784.72;4919854;28;20052;-84
2022/11/12 08:43:22;;;;;;;7.40;2.83;;;;;;;0.63;72.75;100789.00;4918402;28;20060;-84
2022/11/12 08:45:53;;;;;;;6.00;2.70;;;;;;;0.49;72.83;100774.81;4927955;28;20068;-83
2022/11/12 08:48:24;;;;;;;6.50;2.80;;;;;;;0.62;72.66;100796.66;4918323;28;20250;-83
2022/11/12 08:50:55;;;;;;;7.95;2.58;;;;;;;0.62;72.94;100805.25;4922096;28;20036;-84
2022/11/12 08:53:27;;;;;;;7.00;3.00;;;;;;;0.63;72.85;100811.28;4924520;28;20447;-84
2022/11/12 08:55:59;;;;;;;6.28;2.92;;;;;;;0.37;72.55;100775.28;4925299;28;20049;-85
2022/11/12 08:58:31;;;;;;;8.15;3.22;;;;;;;0.32;73.05;100761.41;4909893;28;20097;-83
2022/11/12 09:01:06;;;;;;;3.72;2.70;;;;;;;0.63;73.12;100819.00;4916285;28;20086;-85
2022/11/12 09:03:37;;;;;;;6.72;2.92;;;;;;;0.64;73.32;100815.56;4924565;28;20060;-83
2022/11/12 09:06:11;;;;;;;5.15;2.83;;;;;;;0.63;73.24;100819.84;4928321;28;20067;-84
2022/11/12 09:08:51;;;;;;;9.43;3.20;;;;;;;0.61;73.15;100810.34;4912569;28;20056;-83
2022/11/12 09:11:34;;;;;;;15.30;6.45;;;;;;;0.62;73.61;100812.06;4893228;28;20337;-79
2022/11/12 09:21:16;;;;;;;6.35;2.95;;;;;;;0.47;73.14;100788.44;4647727;29;20285;-79
2022/11/12 09:24:02;;;;;;;6.57;2.97;;;;;;;0.53;73.35;100811.81;4679385;29;20050;-81
2022/11/12 09:26:53;;;;;;;2.80;2.30;;;;;;;0.56;73.14;100823.03;4682251;29;20488;-81
2022/11/12 09:29:39;;;;;;;13.02;3.30;;;;;;;0.55;73.95;100815.28;4686064;29;20046;-82
2022/11/12 09:32:25;;;;;;;6.60;2.95;;;;;;;0.54;74.01;100818.69;4684314;29;20062;-82
2022/11/12 09:35:09;;;;;;;6.05;2.80;;;;;;;0.37;73.81;100785.56;4702288;29;20044;-82
2022/11/12 09:37:42;;;;;;;5.35;2.60;;;;;;;0.52;73.68;100817.75;4768409;29;20091;-83
2022/11/12 09:40:32;;;;;;;8.68;2.67;;;;;;;0.51;73.71;100828.88;4767035;29;20080;-83
2022/11/12 09:43:17;;;;;;;4.75;2.75;;;;;;;0.51;73.69;100816.88;4755221;29;20099;-85
2022/11/12 09:45:52;;;;;;;8.38;2.70;;;;;;;0.24;73.96;100772.25;4752170;29;20048;-85
2022/11/12 09:49:00;;;;;;;4.93;2.60;;;;;;;0.48;74.24;100809.06;4746439;28;20345;-83
2022/11/12 09:51:47;;;;;;;8.13;3.42;;;;;;;0.49;74.20;100810.81;4873167;28;20048;-84
2022/11/12 09:54:24;;;;;;;6.28;3.00;;;;;;;0.47;73.82;100801.28;4914198;28;20052;-84
2022/11/12 09:56:58;;;;;;;7.38;3.13;;;;;;;0.48;74.06;100797.91;4915577;28;20049;-83
2022/11/12 09:59:38;;;;;;;8.10;3.17;;;;;;;0.47;74.28;100796.16;4921934;28;20102;-84
2022/11/12 10:02:24;;;;;;;;;;;;;;;0.49;74.40;100794.50;4911084;28;20059;-82
2022/11/12 10:05:14;;;;;;;7.72;2.83;;;;;;;0.28;74.36;100769.84;4897671;28;19925;-83
2022/11/12 10:08:04;;;;;;;7.05;2.83;;;;;;;0.54;74.36;100798.09;4904948;28;20048;-83
2022/11/12 10:10:46;;;;;;;6.32;2.97;;;;;;;0.26;74.42;100745.78;4903594;28;20494;-83
2022/11/12 10:13:36;;;;;;;4.80;2.55;;;;;;;0.38;74.24;100760.75;4916649;28;20059;-83
2022/11/12 10:19:43;;;;;;;5.70;2.75;;;;;;;0.56;74.40;100799.03;4920895;28;20049;-84
2022/11/12 10:22:27;;;;;;;12.93;4.88;;;;;;;0.59;73.80;100807.72;4886188;28;20057;-83
2022/11/12 10:25:02;;;;;;;7.40;4.00;;;;;;;0.57;73.74;100803.34;4907116;28;20040;-81
2022/11/12 10:27:43;;;;;;;11.43;3.53;;;;;;;0.53;73.60;100810.09;4919141;28;20378;-82
2022/11/12 10:30:18;;;;;;;8.80;3.15;;;;;;;0.55;73.80;100807.56;4910786;28;20485;-83
2022/11/12 10:32:56;;;;;;;9.40;3.20;;;;;;;0.54;73.75;100805.81;4916340;28;20062;-84
2022/11/12 10:35:27;;;;;;;5.68;3.22;;;;;;;0.56;73.77;100801.59;4925470;28;20050;-82
2022/11/12 10:38:05;;;;;;;4.82;2.85;;;;;;;0.49;73.52;100790.25;4898155;28;20099;-82
2022/11/12 10:40:38;;;;;;;6.70;3.00;;;;;;;0.36;73.83;100765.81;4915782;28;20096;-82
2022/11/12 10:43:24;;;;;;;4.00;2.83;;;;;;;0.55;73.72;100795.59;4925623;28;20085;-81
2022/11/12 10:46:18;;;;;;;6.22;3.00;;;;;;;0.59;73.92;100792.28;4915041;28;20053;-82
2022/11/12 10:49:07;;;;;;;5.82;2.78;;;;;;;0.54;73.68;100787.81;4894359;28;20423;-81
2022/11/12 10:51:40;;;;;;;4.38;2.55;;;;;;;0.40;73.63;100767.69;4902019;28;20052;-82
2022/11/12 10:54:36;;;;;;;7.15;2.88;;;;;;;0.43;73.62;100775.50;4902253;28;20053;-83
2022/11/12 10:57:24;;;;;;;7.60;3.95;;;;;;;0.31;73.08;100763.94;4911849;28;20255;-83
2022/11/12 11:00:17;;;;;;;6.53;3.10;;;;;;;0.47;73.51;100801.28;4926025;28;20052;-83
2022/11/12 11:02:56;;;;;;;6.43;3.60;;;;;;;0.44;73.82;100809.78;4902479;28;20430;-82
2022/11/12 11:05:37;;;;;;;7.35;3.00;;;;;;;0.26;74.05;100775.75;4908885;28;20066;-83
2022/11/12 11:08:10;;;;;;;5.65;2.50;;;;;;;0.45;73.79;100797.78;4915226;28;20112;-82
2022/11/12 11:11:12;;;;;;;4.47;2.63;;;;;;;0.35;74.01;100791.47;4914633;28;20520;-84
2022/11/12 11:13:47;;;;;;;6.72;2.80;;;;;;;0.45;74.48;100797.78;4901952;28;20041;-84
2022/11/12 11:16:57;;;;;;;6.05;2.35;;;;;;;0.45;74.28;100797.78;4906466;28;20078;-83
2022/11/12 11:19:36;;;;;;;4.25;2.45;;;;;;;0.27;74.33;100768.09;4915566;28;20059;-83
2022/11/12 11:22:32;;;;;;;3.88;2.75;;;;;;;0.07;74.41;100738.28;4901913;28;20456;-84
2022/11/12 11:25:26;;;;;;;4.80;2.40;;;;;;;0.28;74.49;100780.13;4918824;28;20046;-84
2022/11/12 11:32:12;;;;;;;4.85;2.42;;;;;;;-0.07;74.76;100715.56;4947415;28;20058;-83
2022/11/12 11:35:17;;;;;;;3.55;2.40;;;;;;;0.16;75.37;100748.88;4914060;28;20348;-83
2022/11/12 11:38:16;;;;;;;5.87;2.93;;;;;;;0.27;75.11;100773.22;4915040;28;20236;-83
2022/11/12 11:41:05;;;;;;;8.73;3.22;;;;;;;0.26;75.27;100766.34;4906301;28;20460;-82
2022/11/12 11:43:52;;;;;;;15.75;5.93;;;;;;;0.18;74.98;100754.94;4914379;28;20067;-83
2022/11/12 11:50:21;;;;;;;5.45;2.60;;;;;;;0.18;75.47;100773.81;4896623;28;20344;-83
2022/11/12 11:53:14;;;;;;;5.82;2.60;;;;;;;0.13;75.25;100769.34;4896458;28;20885;-84
2022/11/12 11:55:55;;;;;;;5.65;2.33;;;;;;;0.13;76.09;100769.34;4890102;28;20244;-82
2022/11/12 11:58:51;;;;;;;6.25;2.67;;;;;;;0.13;75.88;100779.63;4906554;28;20052;-82
2022/11/12 12:02:01;;;;;;;8.77;3.20;;;;;;;-0.46;76.40;100695.41;4903614;28;20052;-82
2022/11/12 12:04:45;;;;;;;5.85;2.53;;;;;;;0.06;76.99;100769.94;4854896;28;20308;-82
2022/11/12 12:07:39;;;;;;;6.57;2.50;;;;;;;-0.46;76.24;100669.72;4917915;28;20064;-83
2022/11/12 12:11:11;;;;;;;;;;;;;;;;;;;;;
2022/11/12 12:13:58;;;;;;;5.93;2.47;;;;;;;0.22;76.13;100800.47;4920945;28;20049;-84
2022/11/12 12:16:52;;;;;;;6.32;2.50;;;;;;;0.20;75.61;100797.88;4907227;28;20053;-84
2022/11/12 12:19:41;;;;;;;5.50;2.97;;;;;;;0.07;75.58;100769.13;4921201;28;20425;-84
2022/11/12 12:22:37;;;;;;;3.45;2.25;;;;;;;0.16;75.81;100780.59;4912286;28;20049;-84
2022/11/12 12:25:16;;;;;;;4.93;2.33;;;;;;;0.09;75.81;100768.34;4904861;28;20040;-85
2022/11/12 12:28:22;;;;;;;5.30;2.80;;;;;;;0.32;75.71;100807.66;4959410;28;20048;-85
2022/11/12 12:31:23;;;;;;;7.68;2.70;;;;;;;0.25;75.91;100800.59;4925033;28;20046;-85
2022/11/12 12:34:05;;;;;;;6.50;2.72;;;;;;;-0.40;76.14;100675.88;4933723;28;20048;-83
2022/11/12 12:37:12;;;;;;;9.27;3.05;;;;;;;0.54;76.36;100819.53;4906344;28;20047;-84
2022/11/12 12:40:09;;;;;;;6.60;2.63;;;;;;;0.56;76.19;100812.75;4890831;28;20113;-83
2022/11/12 12:42:50;;;;;;;4.82;2.40;;;;;;;0.35;76.01;100784.66;4884291;28;20113;-84
2022/11/12 12:45:43;;;;;;;6.47;2.63;;;;;;;0.50;76.29;100811.66;4890472;28;20193;-85
2022/11/12 12:48:40;;;;;;;5.78;2.80;;;;;;;0.58;76.58;100821.41;4976411;28;20036;-83
2022/11/12 12:51:18;;;;;;;9.23;2.92;;;;;;;0.38;77.18;100795.03;4935507;28;20051;-83
2022/11/12 12:53:49;;;;;;;5.45;2.55;;;;;;;0.60;77.59;100813.72;4921167;28;20111;-84
2022/11/12 12:56:48;;;;;;;4.03;2.50;;;;;;;0.51;77.75;100818.59;4917606;28;20052;-86
2022/11/12 12:59:24;;;;;;;5.78;2.65;;;;;;;0.08;78.60;100781.16;4899702;28;20236;-83
2022/11/12 13:02:01;;;;;;;6.30;2.60;;;;;;;0.16;79.42;100831.13;4916307;28;20107;-84